sensor_id;sensor_type;location;lat;lon;timestamp;temperature;humidity
3954;DHT22;1991;48.682;9.030;2022-11-25T00:02:18;1.50;99.90
3954;DHT22;1991;48.682;9.030;2022-11-25T00:04:44;1.50;99.90
3954;DHT22;1991;48.682;9.030;2022-11-25T00:07:10;1.50;99.90
3954;DHT22;1991;48.682;9.030;2022-11-25T00:09:35;1.50;99.90
3954;DHT22;1991;48.682;9.030;2022-11-25T00:12:01;1.50;99.90
3954;DHT22;1991;48.682;9.030;2022-11-25T00:14:27;1.50;99.90
3954;DHT22;1991;48.682;9.030;2022-11-25T00:16:52;1.60;99.90
3954;DHT22;1991;48.682;9.030;2022-11-25T00:19:18;1.60;99.90
3954;DHT22;1991;48.682;9.030;2022-11-25T00:21:44;1.60;99.90
3954;DHT22;1991;48.682;9.030;2022-11-25T00:24:13;1.70;99.90
3954;DHT22;1991;48.682;9.030;2022-11-25T00:26:39;1.80;99.90
3954;DHT22;1991;48.682;9.030;2022-11-25T00:29:06;1.90;99.90
3954;DHT22;1991;48.682;9.030;2022-11-25T00:31:34;1.90;99.90
3954;DHT22;1991;48.682;9.030;2022-11-25T00:34:00;2.00;99.90
3954;DHT22;1991;48.682;9.030;2022-11-25T00:36:30;2.00;99.90
3954;DHT22;1991;48.682;9.030;2022-11-25T00:39:04;2.10;99.90
3954;DHT22;1991;48.682;9.030;2022-11-25T00:41:30;2.10;99.90
3954;DHT22;1991;48.682;9.030;2022-11-25T00:44:17;2.20;99.90
3954;DHT22;1991;48.682;9.030;2022-11-25T00:49:30;2.30;99.90
3954;DHT22;1991;48.682;9.030;2022-11-25T00:51:56;2.40;99.90
3954;DHT22;1991;48.682;9.030;2022-11-25T00:54:21;2.40;99.90
3954;DHT22;1991;48.682;9.030;2022-11-25T00:56:47;2.50;99.90
3954;DHT22;1991;48.682;9.030;2022-11-25T00:59:13;2.50;99.90
3954;DHT22;1991;48.682;9.030;2022-11-25T01:01:38;2.60;99.90
3954;DHT22;1991;48.682;9.030;2022-11-25T01:04:05;2.60;99.90
3954;DHT22;1991;48.682;9.030;2022-11-25T01:06:31;2.70;99.90
3954;DHT22;1991;48.682;9.030;2022-11-25T01:08:56;2.80;99.90
3954;DHT22;1991;48.682;9.030;2022-11-25T01:11:23;2.90;99.90
3954;DHT22;1991;48.682;9.030;2022-11-25T01:13:49;3.00;99.90
3954;DHT22;1991;48.682;9.030;2022-11-25T01:16:17;3.10;99.90
3954;DHT22;1991;48.682;9.030;2022-11-25T01:18:43;3.20;99.90
3954;DHT22;1991;48.682;9.030;2022-11-25T01:21:12;3.30;99.90
3954;DHT22;1991;48.682;9.030;2022-11-25T01:23:38;3.40;99.90
3954;DHT22;1991;48.682;9.030;2022-11-25T01:26:07;3.40;99.90
3954;DHT22;1991;48.682;9.030;2022-11-25T01:28:33;3.50;99.90
3954;DHT22;1991;48.682;9.030;2022-11-25T01:31:04;3.60;99.90
3954;DHT22;1991;48.682;9.030;2022-11-25T01:33:31;3.60;99.90
3954;DHT22;1991;48.682;9.030;2022-11-25T01:36:05;3.60;99.90
3954;DHT22;1991;48.682;9.030;2022-11-25T01:38:31;3.70;99.90
3954;DHT22;1991;48.682;9.030;2022-11-25T01:40:58;3.70;99.90
3954;DHT22;1991;48.682;9.030;2022-11-25T01:43:24;3.70;99.90
3954;DHT22;1991;48.682;9.030;2022-11-25T01:45:49;3.70;99.90
3954;DHT22;1991;48.682;9.030;2022-11-25T01:48:17;3.70;99.90
3954;DHT22;1991;48.682;9.030;2022-11-25T01:50:46;3.70;99.90
3954;DHT22;1991;48.682;9.030;2022-11-25T01:53:13;3.70;99.90
3954;DHT22;1991;48.682;9.030;2022-11-25T01:55:47;3.70;99.90
3954;DHT22;1991;48.682;9.030;2022-11-25T01:58:17;3.70;99.90
3954;DHT22;1991;48.682;9.030;2022-11-25T02:00:45;3.60;99.90
3954;DHT22;1991;48.682;9.030;2022-11-25T02:03:21;3.60;99.90
3954;DHT22;1991;48.682;9.030;2022-11-25T02:06:30;3.60;99.90
3954;DHT22;1991;48.682;9.030;2022-11-25T02:08:57;3.60;99.90
3954;DHT22;1991;48.682;9.030;2022-11-25T02:11:26;3.50;99.90
3954;DHT22;1991;48.682;9.030;2022-11-25T02:13:53;3.40;99.90
3954;DHT22;1991;48.682;9.030;2022-11-25T02:16:19;3.40;99.90
3954;DHT22;1991;48.682;9.030;2022-11-25T02:18:45;3.40;99.90
3954;DHT22;1991;48.682;9.030;2022-11-25T02:21:14;3.30;99.90
3954;DHT22;1991;48.682;9.030;2022-11-25T02:23:48;3.20;99.90
3954;DHT22;1991;48.682;9.030;2022-11-25T02:26:16;3.20;99.90
3954;DHT22;1991;48.682;9.030;2022-11-25T02:28:42;3.10;99.90
3954;DHT22;1991;48.682;9.030;2022-11-25T02:31:09;3.10;99.90
3954;DHT22;1991;48.682;9.030;2022-11-25T02:33:34;3.10;99.90
3954;DHT22;1991;48.682;9.030;2022-11-25T02:36:12;3.00;99.90
3954;DHT22;1991;48.682;9.030;2022-11-25T02:38:42;3.00;99.90
3954;DHT22;1991;48.682;9.030;2022-11-25T02:43:39;2.90;99.90
3954;DHT22;1991;48.682;9.030;2022-11-25T02:46:07;2.90;99.90
3954;DHT22;1991;48.682;9.030;2022-11-25T02:48:35;2.80;99.90
3954;DHT22;1991;48.682;9.030;2022-11-25T02:51:02;2.70;99.90
3954;DHT22;1991;48.682;9.030;2022-11-25T02:53:27;2.70;99.90
3954;DHT22;1991;48.682;9.030;2022-11-25T02:55:53;2.70;99.90
3954;DHT22;1991;48.682;9.030;2022-11-25T02:58:19;2.70;99.90
3954;DHT22;1991;48.682;9.030;2022-11-25T03:00:45;2.70;99.90
3954;DHT22;1991;48.682;9.030;2022-11-25T03:03:11;2.70;99.90
3954;DHT22;1991;48.682;9.030;2022-11-25T03:05:37;2.70;99.90
3954;DHT22;1991;48.682;9.030;2022-11-25T03:08:04;2.80;99.90
3954;DHT22;1991;48.682;9.030;2022-11-25T03:10:30;2.80;99.90
3954;DHT22;1991;48.682;9.030;2022-11-25T03:12:55;2.80;99.90
3954;DHT22;1991;48.682;9.030;2022-11-25T03:15:21;2.90;99.90
3954;DHT22;1991;48.682;9.030;2022-11-25T03:17:47;2.90;99.90
3954;DHT22;1991;48.682;9.030;2022-11-25T03:20:12;2.90;99.90
3954;DHT22;1991;48.682;9.030;2022-11-25T03:22:40;2.90;99.90
3954;DHT22;1991;48.682;9.030;2022-11-25T03:25:06;2.90;99.90
3954;DHT22;1991;48.682;9.030;2022-11-25T03:27:33;2.90;99.90
3954;DHT22;1991;48.682;9.030;2022-11-25T03:29:58;3.00;99.90
3954;DHT22;1991;48.682;9.030;2022-11-25T03:32:24;3.00;99.90
3954;DHT22;1991;48.682;9.030;2022-11-25T03:34:50;3.00;99.90
3954;DHT22;1991;48.682;9.030;2022-11-25T03:37:16;2.90;99.90
3954;DHT22;1991;48.682;9.030;2022-11-25T03:39:41;2.90;99.90
3954;DHT22;1991;48.682;9.030;2022-11-25T03:42:07;2.90;99.90
3954;DHT22;1991;48.682;9.030;2022-11-25T03:44:33;2.80;99.90
3954;DHT22;1991;48.682;9.030;2022-11-25T03:46:58;2.80;99.90
3954;DHT22;1991;48.682;9.030;2022-11-25T03:49:24;2.70;99.90
3954;DHT22;1991;48.682;9.030;2022-11-25T03:51:49;2.70;99.90
3954;DHT22;1991;48.682;9.030;2022-11-25T03:54:15;2.70;99.90
3954;DHT22;1991;48.682;9.030;2022-11-25T03:56:41;2.70;99.90
3954;DHT22;1991;48.682;9.030;2022-11-25T03:59:06;2.70;99.90
3954;DHT22;1991;48.682;9.030;2022-11-25T04:01:32;2.70;99.90
3954;DHT22;1991;48.682;9.030;2022-11-25T04:03:57;2.70;99.90
3954;DHT22;1991;48.682;9.030;2022-11-25T04:06:23;2.70;99.90
3954;DHT22;1991;48.682;9.030;2022-11-25T04:08:49;2.70;99.90
3954;DHT22;1991;48.682;9.030;2022-11-25T04:11:15;2.70;99.90
3954;DHT22;1991;48.682;9.030;2022-11-25T04:13:41;2.70;99.90
3954;DHT22;1991;48.682;9.030;2022-11-25T04:16:23;2.70;99.90
3954;DHT22;1991;48.682;9.030;2022-11-25T04:18:49;2.70;99.90
3954;DHT22;1991;48.682;9.030;2022-11-25T04:21:15;2.80;99.90
3954;DHT22;1991;48.682;9.030;2022-11-25T04:23:40;2.80;99.90
3954;DHT22;1991;48.682;9.030;2022-11-25T04:26:06;2.90;99.90
3954;DHT22;1991;48.682;9.030;2022-11-25T04:28:31;2.90;99.90
3954;DHT22;1991;48.682;9.030;2022-11-25T04:30:57;2.90;99.90
3954;DHT22;1991;48.682;9.030;2022-11-25T04:33:23;3.00;99.90
3954;DHT22;1991;48.682;9.030;2022-11-25T04:35:48;3.00;99.90
3954;DHT22;1991;48.682;9.030;2022-11-25T04:38:14;3.00;99.90
3954;DHT22;1991;48.682;9.030;2022-11-25T04:40:39;3.00;99.90
3954;DHT22;1991;48.682;9.030;2022-11-25T04:43:05;2.90;99.90
3954;DHT22;1991;48.682;9.030;2022-11-25T04:45:30;2.80;99.90
3954;DHT22;1991;48.682;9.030;2022-11-25T04:47:56;2.80;99.90
3954;DHT22;1991;48.682;9.030;2022-11-25T04:50:22;2.60;99.90
3954;DHT22;1991;48.682;9.030;2022-11-25T04:52:48;2.60;99.90
3954;DHT22;1991;48.682;9.030;2022-11-25T04:55:14;2.50;99.90
3954;DHT22;1991;48.682;9.030;2022-11-25T04:57:40;2.50;99.90
3954;DHT22;1991;48.682;9.030;2022-11-25T05:00:06;2.40;99.90
3954;DHT22;1991;48.682;9.030;2022-11-25T05:02:32;2.40;99.90
3954;DHT22;1991;48.682;9.030;2022-11-25T05:04:58;2.40;99.90
3954;DHT22;1991;48.682;9.030;2022-11-25T05:07:25;2.40;99.90
3954;DHT22;1991;48.682;9.030;2022-11-25T05:09:51;2.40;99.90
3954;DHT22;1991;48.682;9.030;2022-11-25T05:12:21;2.50;99.90
3954;DHT22;1991;48.682;9.030;2022-11-25T05:14:47;2.50;99.90
3954;DHT22;1991;48.682;9.030;2022-11-25T05:17:17;2.50;99.90
3954;DHT22;1991;48.682;9.030;2022-11-25T05:19:43;2.40;99.90
3954;DHT22;1991;48.682;9.030;2022-11-25T05:22:12;2.40;99.90
3954;DHT22;1991;48.682;9.030;2022-11-25T05:24:38;2.30;99.90
3954;DHT22;1991;48.682;9.030;2022-11-25T05:27:04;2.30;99.90
3954;DHT22;1991;48.682;9.030;2022-11-25T05:29:29;2.30;99.90
3954;DHT22;1991;48.682;9.030;2022-11-25T05:31:55;2.30;99.90
3954;DHT22;1991;48.682;9.030;2022-11-25T05:34:20;2.20;99.90
3954;DHT22;1991;48.682;9.030;2022-11-25T05:36:46;2.20;99.90
3954;DHT22;1991;48.682;9.030;2022-11-25T05:39:12;2.10;99.90
3954;DHT22;1991;48.682;9.030;2022-11-25T05:41:37;2.20;99.90
3954;DHT22;1991;48.682;9.030;2022-11-25T05:44:03;2.10;99.90
3954;DHT22;1991;48.682;9.030;2022-11-25T05:46:29;2.10;99.90
3954;DHT22;1991;48.682;9.030;2022-11-25T05:48:55;2.00;99.90
3954;DHT22;1991;48.682;9.030;2022-11-25T05:51:22;2.00;99.90
3954;DHT22;1991;48.682;9.030;2022-11-25T05:53:48;2.00;99.90
3954;DHT22;1991;48.682;9.030;2022-11-25T05:56:13;2.00;99.90
3954;DHT22;1991;48.682;9.030;2022-11-25T05:58:39;1.90;99.90
3954;DHT22;1991;48.682;9.030;2022-11-25T06:01:08;1.90;99.90
3954;DHT22;1991;48.682;9.030;2022-11-25T06:03:35;1.80;99.90
3954;DHT22;1991;48.682;9.030;2022-11-25T06:06:01;1.80;99.90
3954;DHT22;1991;48.682;9.030;2022-11-25T06:08:27;1.80;99.90
3954;DHT22;1991;48.682;9.030;2022-11-25T06:10:53;1.80;99.90
3954;DHT22;1991;48.682;9.030;2022-11-25T06:13:19;1.70;99.90
3954;DHT22;1991;48.682;9.030;2022-11-25T06:15:45;1.70;99.90
3954;DHT22;1991;48.682;9.030;2022-11-25T06:18:12;1.70;99.90
3954;DHT22;1991;48.682;9.030;2022-11-25T06:20:39;1.60;99.90
3954;DHT22;1991;48.682;9.030;2022-11-25T06:23:05;1.60;99.90
3954;DHT22;1991;48.682;9.030;2022-11-25T06:25:31;1.60;99.90
3954;DHT22;1991;48.682;9.030;2022-11-25T06:27:58;1.60;99.90
3954;DHT22;1991;48.682;9.030;2022-11-25T06:30:24;1.60;99.90
3954;DHT22;1991;48.682;9.030;2022-11-25T06:32:49;1.60;99.90
3954;DHT22;1991;48.682;9.030;2022-11-25T06:35:15;1.60;99.90
3954;DHT22;1991;48.682;9.030;2022-11-25T06:37:41;1.60;99.90
3954;DHT22;1991;48.682;9.030;2022-11-25T06:40:07;1.60;99.90
3954;DHT22;1991;48.682;9.030;2022-11-25T06:42:33;1.70;99.90
3954;DHT22;1991;48.682;9.030;2022-11-25T06:44:59;1.70;99.90
3954;DHT22;1991;48.682;9.030;2022-11-25T06:47:25;1.80;99.90
3954;DHT22;1991;48.682;9.030;2022-11-25T06:49:50;2.00;99.90
3954;DHT22;1991;48.682;9.030;2022-11-25T06:52:16;2.10;99.90
3954;DHT22;1991;48.682;9.030;2022-11-25T06:54:41;2.30;99.90
3954;DHT22;1991;48.682;9.030;2022-11-25T06:57:11;2.60;99.90
3954;DHT22;1991;48.682;9.030;2022-11-25T06:59:37;2.70;99.90
3954;DHT22;1991;48.682;9.030;2022-11-25T07:02:03;2.80;99.90
3954;DHT22;1991;48.682;9.030;2022-11-25T07:04:29;3.00;99.90
3954;DHT22;1991;48.682;9.030;2022-11-25T07:06:55;3.10;99.90
3954;DHT22;1991;48.682;9.030;2022-11-25T07:09:21;3.30;99.90
3954;DHT22;1991;48.682;9.030;2022-11-25T07:11:47;3.40;99.90
3954;DHT22;1991;48.682;9.030;2022-11-25T07:14:15;3.50;99.90
3954;DHT22;1991;48.682;9.030;2022-11-25T07:16:42;3.60;99.90
3954;DHT22;1991;48.682;9.030;2022-11-25T07:19:10;3.70;99.90
3954;DHT22;1991;48.682;9.030;2022-11-25T07:21:36;3.90;99.90
3954;DHT22;1991;48.682;9.030;2022-11-25T07:24:04;4.00;99.90
3954;DHT22;1991;48.682;9.030;2022-11-25T07:26:33;4.10;99.90
3954;DHT22;1991;48.682;9.030;2022-11-25T07:29:01;4.20;99.90
3954;DHT22;1991;48.682;9.030;2022-11-25T07:31:33;4.40;99.90
3954;DHT22;1991;48.682;9.030;2022-11-25T07:34:05;4.50;99.90
3954;DHT22;1991;48.682;9.030;2022-11-25T07:36:33;4.70;99.90
3954;DHT22;1991;48.682;9.030;2022-11-25T07:39:00;4.70;99.90
3954;DHT22;1991;48.682;9.030;2022-11-25T07:41:27;4.80;99.90
3954;DHT22;1991;48.682;9.030;2022-11-25T07:43:55;4.90;99.90
3954;DHT22;1991;48.682;9.030;2022-11-25T07:48:47;5.10;99.90
3954;DHT22;1991;48.682;9.030;2022-11-25T07:51:24;5.20;99.90
3954;DHT22;1991;48.682;9.030;2022-11-25T07:53:52;5.40;99.90
3954;DHT22;1991;48.682;9.030;2022-11-25T07:56:18;5.50;99.90
3954;DHT22;1991;48.682;9.030;2022-11-25T07:58:44;5.50;99.90
3954;DHT22;1991;48.682;9.030;2022-11-25T08:01:11;5.50;99.90
3954;DHT22;1991;48.682;9.030;2022-11-25T08:03:39;5.50;99.90
3954;DHT22;1991;48.682;9.030;2022-11-25T08:06:07;5.50;99.90
3954;DHT22;1991;48.682;9.030;2022-11-25T08:08:34;5.40;99.90
3954;DHT22;1991;48.682;9.030;2022-11-25T08:11:00;5.40;99.90
3954;DHT22;1991;48.682;9.030;2022-11-25T08:13:25;5.40;99.90
3954;DHT22;1991;48.682;9.030;2022-11-25T08:15:51;5.40;99.90
3954;DHT22;1991;48.682;9.030;2022-11-25T08:18:17;5.50;99.90
3954;DHT22;1991;48.682;9.030;2022-11-25T08:20:43;5.40;99.90
3954;DHT22;1991;48.682;9.030;2022-11-25T08:23:09;5.50;99.90
3954;DHT22;1991;48.682;9.030;2022-11-25T08:25:41;5.70;99.90
3954;DHT22;1991;48.682;9.030;2022-11-25T08:28:07;5.90;99.90
3954;DHT22;1991;48.682;9.030;2022-11-25T08:30:34;6.20;99.90
3954;DHT22;1991;48.682;9.030;2022-11-25T08:32:59;6.40;99.90
3954;DHT22;1991;48.682;9.030;2022-11-25T08:35:25;6.60;99.90
3954;DHT22;1991;48.682;9.030;2022-11-25T08:37:51;6.70;99.90
3954;DHT22;1991;48.682;9.030;2022-11-25T08:40:17;6.70;99.90
3954;DHT22;1991;48.682;9.030;2022-11-25T08:42:42;6.80;99.90
3954;DHT22;1991;48.682;9.030;2022-11-25T08:45:10;7.00;99.90
3954;DHT22;1991;48.682;9.030;2022-11-25T08:47:36;7.30;99.90
3954;DHT22;1991;48.682;9.030;2022-11-25T08:50:06;7.60;99.90
3954;DHT22;1991;48.682;9.030;2022-11-25T08:52:32;7.90;99.90
3954;DHT22;1991;48.682;9.030;2022-11-25T08:54:57;8.20;99.90
3954;DHT22;1991;48.682;9.030;2022-11-25T08:57:23;8.50;99.90
3954;DHT22;1991;48.682;9.030;2022-11-25T08:59:48;8.70;99.90
3954;DHT22;1991;48.682;9.030;2022-11-25T09:02:16;8.80;99.90
3954;DHT22;1991;48.682;9.030;2022-11-25T09:04:42;9.10;99.90
3954;DHT22;1991;48.682;9.030;2022-11-25T09:07:07;8.90;99.90
3954;DHT22;1991;48.682;9.030;2022-11-25T09:09:33;8.80;99.90
3954;DHT22;1991;48.682;9.030;2022-11-25T09:11:59;8.80;99.90
3954;DHT22;1991;48.682;9.030;2022-11-25T09:14:24;8.70;99.90
3954;DHT22;1991;48.682;9.030;2022-11-25T09:16:50;8.60;99.90
3954;DHT22;1991;48.682;9.030;2022-11-25T09:19:15;8.50;99.90
3954;DHT22;1991;48.682;9.030;2022-11-25T09:21:44;8.50;99.90
3954;DHT22;1991;48.682;9.030;2022-11-25T09:24:09;8.30;99.90
3954;DHT22;1991;48.682;9.030;2022-11-25T09:26:35;8.20;99.90
3954;DHT22;1991;48.682;9.030;2022-11-25T09:29:04;8.10;99.90
3954;DHT22;1991;48.682;9.030;2022-11-25T09:31:29;8.10;99.90
3954;DHT22;1991;48.682;9.030;2022-11-25T09:33:55;8.20;99.90
3954;DHT22;1991;48.682;9.030;2022-11-25T09:36:21;8.20;99.90
3954;DHT22;1991;48.682;9.030;2022-11-25T09:38:48;8.30;99.90
3954;DHT22;1991;48.682;9.030;2022-11-25T09:41:33;8.40;99.90
3954;DHT22;1991;48.682;9.030;2022-11-25T09:50:42;8.50;99.90
3954;DHT22;1991;48.682;9.030;2022-11-25T09:56:07;8.90;99.90
3954;DHT22;1991;48.682;9.030;2022-11-25T09:58:39;9.20;99.90
3954;DHT22;1991;48.682;9.030;2022-11-25T10:01:13;9.50;99.90
3954;DHT22;1991;48.682;9.030;2022-11-25T10:03:40;9.70;99.90
3954;DHT22;1991;48.682;9.030;2022-11-25T10:06:13;10.40;99.90
3954;DHT22;1991;48.682;9.030;2022-11-25T10:08:47;11.90;99.90
3954;DHT22;1991;48.682;9.030;2022-11-25T10:19:00;17.00;90.40
3954;DHT22;1991;48.682;9.030;2022-11-25T10:21:26;19.50;72.70
3954;DHT22;1991;48.682;9.030;2022-11-25T10:23:52;19.30;65.10
3954;DHT22;1991;48.682;9.030;2022-11-25T10:26:21;20.30;61.40
3954;DHT22;1991;48.682;9.030;2022-11-25T10:28:54;19.60;60.20
3954;DHT22;1991;48.682;9.030;2022-11-25T10:31:28;19.20;62.50
3954;DHT22;1991;48.682;9.030;2022-11-25T10:33:57;18.70;61.50
3954;DHT22;1991;48.682;9.030;2022-11-25T10:36:28;18.40;62.00
3954;DHT22;1991;48.682;9.030;2022-11-25T10:39:19;17.00;64.60
3954;DHT22;1991;48.682;9.030;2022-11-25T10:41:56;15.90;68.10
3954;DHT22;1991;48.682;9.030;2022-11-25T10:44:32;14.20;73.00
3954;DHT22;1991;48.682;9.030;2022-11-25T10:55:13;12.20;87.10
3954;DHT22;1991;48.682;9.030;2022-11-25T10:57:39;11.70;90.30
3954;DHT22;1991;48.682;9.030;2022-11-25T11:00:06;11.30;92.40
3954;DHT22;1991;48.682;9.030;2022-11-25T11:02:39;10.90;94.50
3954;DHT22;1991;48.682;9.030;2022-11-25T11:07:42;10.50;99.00
3954;DHT22;1991;48.682;9.030;2022-11-25T11:10:22;10.30;99.90
3954;DHT22;1991;48.682;9.030;2022-11-25T11:12:58;10.20;99.90
3954;DHT22;1991;48.682;9.030;2022-11-25T11:20:47;9.80;99.90
3954;DHT22;1991;48.682;9.030;2022-11-25T11:23:13;9.60;99.90
3954;DHT22;1991;48.682;9.030;2022-11-25T11:25:41;9.60;99.90
3954;DHT22;1991;48.682;9.030;2022-11-25T11:31:18;9.40;99.90
3954;DHT22;1991;48.682;9.030;2022-11-25T11:44:07;9.20;99.90
3954;DHT22;1991;48.682;9.030;2022-11-25T11:51:54;8.90;99.90
3954;DHT22;1991;48.682;9.030;2022-11-25T11:54:34;8.90;99.90
3954;DHT22;1991;48.682;9.030;2022-11-25T11:57:19;9.00;99.90
3954;DHT22;1991;48.682;9.030;2022-11-25T11:59:47;9.20;99.90
3954;DHT22;1991;48.682;9.030;2022-11-25T12:10:39;9.50;99.90
3954;DHT22;1991;48.682;9.030;2022-11-25T12:13:18;9.60;99.90
3954;DHT22;1991;48.682;9.030;2022-11-25T12:21:50;9.90;99.90
3954;DHT22;1991;48.682;9.030;2022-11-25T12:27:02;9.90;99.90
3954;DHT22;1991;48.682;9.030;2022-11-25T12:35:29;9.60;99.90
3954;DHT22;1991;48.682;9.030;2022-11-25T12:38:18;9.50;99.90
3954;DHT22;1991;48.682;9.030;2022-11-25T12:43:27;9.40;99.90
3954;DHT22;1991;48.682;9.030;2022-11-25T12:46:23;9.40;99.90
3954;DHT22;1991;48.682;9.030;2022-11-25T12:48:52;9.40;99.90
3954;DHT22;1991;48.682;9.030;2022-11-25T12:51:40;9.50;99.90
3954;DHT22;1991;48.682;9.030;2022-11-25T13:00:09;9.40;99.90
3954;DHT22;1991;48.682;9.030;2022-11-25T13:14:02;9.20;99.90
3954;DHT22;1991;48.682;9.030;2022-11-25T13:16:29;9.20;99.90
3954;DHT22;1991;48.682;9.030;2022-11-25T13:18:55;9.20;99.90
3954;DHT22;1991;48.682;9.030;2022-11-25T13:21:21;9.30;99.90
3954;DHT22;1991;48.682;9.030;2022-11-25T13:23:51;9.20;99.90
3954;DHT22;1991;48.682;9.030;2022-11-25T13:28:58;9.20;99.90
3954;DHT22;1991;48.682;9.030;2022-11-25T13:31:32;9.30;99.90
3954;DHT22;1991;48.682;9.030;2022-11-25T13:34:23;9.50;99.90
3954;DHT22;1991;48.682;9.030;2022-11-25T13:36:50;9.80;99.90
3954;DHT22;1991;48.682;9.030;2022-11-25T13:39:28;10.60;99.90
3954;DHT22;1991;48.682;9.030;2022-11-25T13:44:53;11.70;99.90
3954;DHT22;1991;48.682;9.030;2022-11-25T13:47:42;12.30;99.90
3954;DHT22;1991;48.682;9.030;2022-11-25T13:52:41;15.50;99.90
3954;DHT22;1991;48.682;9.030;2022-11-25T13:55:22;16.70;95.30
3954;DHT22;1991;48.682;9.030;2022-11-25T14:06:22;14.10;94.60
3954;DHT22;1991;48.682;9.030;2022-11-25T14:09:01;13.40;96.50
3954;DHT22;1991;48.682;9.030;2022-11-25T14:27:34;11.20;95.50
3954;DHT22;1991;48.682;9.030;2022-11-25T14:30:06;10.80;96.40
3954;DHT22;1991;48.682;9.030;2022-11-25T14:35:18;10.10;98.70
3954;DHT22;1991;48.682;9.030;2022-11-25T14:37:58;10.00;99.40
3954;DHT22;1991;48.682;9.030;2022-11-25T14:40:40;9.80;99.90
3954;DHT22;1991;48.682;9.030;2022-11-25T14:43:14;9.70;99.90
3954;DHT22;1991;48.682;9.030;2022-11-25T14:45:41;9.60;99.90
3954;DHT22;1991;48.682;9.030;2022-11-25T14:48:16;9.50;99.90
3954;DHT22;1991;48.682;9.030;2022-11-25T14:50:59;9.40;99.90
3954;DHT22;1991;48.682;9.030;2022-11-25T14:53:26;9.30;99.90
3954;DHT22;1991;48.682;9.030;2022-11-25T14:55:52;9.10;99.90
3954;DHT22;1991;48.682;9.030;2022-11-25T14:58:20;9.10;99.90
3954;DHT22;1991;48.682;9.030;2022-11-25T15:00:59;9.00;99.90
3954;DHT22;1991;48.682;9.030;2022-11-25T15:03:24;8.80;99.90
3954;DHT22;1991;48.682;9.030;2022-11-25T15:05:55;8.70;99.90
3954;DHT22;1991;48.682;9.030;2022-11-25T15:08:23;8.50;99.90
3954;DHT22;1991;48.682;9.030;2022-11-25T15:13:33;8.30;99.90
3954;DHT22;1991;48.682;9.030;2022-11-25T15:16:23;8.20;99.90
3954;DHT22;1991;48.682;9.030;2022-11-25T15:18:51;8.10;99.90
3954;DHT22;1991;48.682;9.030;2022-11-25T15:21:26;7.90;99.90
3954;DHT22;1991;48.682;9.030;2022-11-25T15:23:53;7.80;99.90
3954;DHT22;1991;48.682;9.030;2022-11-25T15:26:22;7.70;99.90
3954;DHT22;1991;48.682;9.030;2022-11-25T15:29:00;7.60;99.90
3954;DHT22;1991;48.682;9.030;2022-11-25T15:31:32;7.40;99.90
3954;DHT22;1991;48.682;9.030;2022-11-25T15:34:01;7.40;99.90
3954;DHT22;1991;48.682;9.030;2022-11-25T15:36:27;7.30;99.90
3954;DHT22;1991;48.682;9.030;2022-11-25T15:38:53;7.20;99.90
3954;DHT22;1991;48.682;9.030;2022-11-25T15:41:33;7.20;99.90
3954;DHT22;1991;48.682;9.030;2022-11-25T15:44:03;7.20;99.90
3954;DHT22;1991;48.682;9.030;2022-11-25T15:46:32;7.20;99.90
3954;DHT22;1991;48.682;9.030;2022-11-25T15:49:01;7.10;99.90
3954;DHT22;1991;48.682;9.030;2022-11-25T15:54:17;7.10;99.90
3954;DHT22;1991;48.682;9.030;2022-11-25T15:56:48;7.10;99.90
3954;DHT22;1991;48.682;9.030;2022-11-25T15:59:35;7.10;99.90
3954;DHT22;1991;48.682;9.030;2022-11-25T16:02:02;6.90;99.90
3954;DHT22;1991;48.682;9.030;2022-11-25T16:04:28;6.90;99.90
3954;DHT22;1991;48.682;9.030;2022-11-25T16:06:55;6.70;99.90
3954;DHT22;1991;48.682;9.030;2022-11-25T16:09:23;6.60;99.90
3954;DHT22;1991;48.682;9.030;2022-11-25T16:11:49;6.60;99.90
3954;DHT22;1991;48.682;9.030;2022-11-25T16:14:21;6.60;99.90
3954;DHT22;1991;48.682;9.030;2022-11-25T16:16:49;6.50;99.90
3954;DHT22;1991;48.682;9.030;2022-11-25T16:19:32;6.30;99.90
3954;DHT22;1991;48.682;9.030;2022-11-25T16:22:00;6.20;99.90
3954;DHT22;1991;48.682;9.030;2022-11-25T16:24:39;6.10;99.90
3954;DHT22;1991;48.682;9.030;2022-11-25T16:27:25;6.00;99.90
3954;DHT22;1991;48.682;9.030;2022-11-25T16:32:22;5.90;99.90
3954;DHT22;1991;48.682;9.030;2022-11-25T16:34:49;6.00;99.90
3954;DHT22;1991;48.682;9.030;2022-11-25T16:37:15;6.00;99.90
3954;DHT22;1991;48.682;9.030;2022-11-25T16:39:41;6.20;99.90
3954;DHT22;1991;48.682;9.030;2022-11-25T16:42:14;6.30;99.90
3954;DHT22;1991;48.682;9.030;2022-11-25T16:44:45;6.30;99.90
3954;DHT22;1991;48.682;9.030;2022-11-25T16:47:12;6.30;99.90
3954;DHT22;1991;48.682;9.030;2022-11-25T16:49:37;6.40;99.90
3954;DHT22;1991;48.682;9.030;2022-11-25T16:52:03;6.40;99.90
3954;DHT22;1991;48.682;9.030;2022-11-25T16:54:29;6.30;99.90
3954;DHT22;1991;48.682;9.030;2022-11-25T16:56:57;6.30;99.90
3954;DHT22;1991;48.682;9.030;2022-11-25T16:59:31;6.20;99.90
3954;DHT22;1991;48.682;9.030;2022-11-25T17:01:59;6.20;99.90
3954;DHT22;1991;48.682;9.030;2022-11-25T17:04:25;6.20;99.90
3954;DHT22;1991;48.682;9.030;2022-11-25T17:06:51;6.10;99.90
3954;DHT22;1991;48.682;9.030;2022-11-25T17:09:17;6.10;99.90
3954;DHT22;1991;48.682;9.030;2022-11-25T17:11:45;6.10;99.90
3954;DHT22;1991;48.682;9.030;2022-11-25T17:14:22;6.10;99.90
3954;DHT22;1991;48.682;9.030;2022-11-25T17:16:49;6.20;99.90
3954;DHT22;1991;48.682;9.030;2022-11-25T17:19:15;6.20;99.90
3954;DHT22;1991;48.682;9.030;2022-11-25T17:21:42;6.20;99.90
3954;DHT22;1991;48.682;9.030;2022-11-25T17:24:17;6.10;99.90
3954;DHT22;1991;48.682;9.030;2022-11-25T17:26:45;6.00;99.90
3954;DHT22;1991;48.682;9.030;2022-11-25T17:29:15;5.90;99.90
3954;DHT22;1991;48.682;9.030;2022-11-25T17:31:42;5.90;99.90
3954;DHT22;1991;48.682;9.030;2022-11-25T17:34:18;5.90;99.90
3954;DHT22;1991;48.682;9.030;2022-11-25T17:36:44;6.00;99.90
3954;DHT22;1991;48.682;9.030;2022-11-25T17:39:11;6.00;99.90
3954;DHT22;1991;48.682;9.030;2022-11-25T17:41:41;6.10;99.90
3954;DHT22;1991;48.682;9.030;2022-11-25T17:44:17;6.20;99.90
3954;DHT22;1991;48.682;9.030;2022-11-25T17:46:45;6.30;99.90
3954;DHT22;1991;48.682;9.030;2022-11-25T17:49:14;6.30;99.90
3954;DHT22;1991;48.682;9.030;2022-11-25T17:51:41;6.40;99.90
3954;DHT22;1991;48.682;9.030;2022-11-25T17:54:07;6.40;99.90
3954;DHT22;1991;48.682;9.030;2022-11-25T17:56:34;6.40;99.90
3954;DHT22;1991;48.682;9.030;2022-11-25T17:59:02;6.40;99.90
3954;DHT22;1991;48.682;9.030;2022-11-25T18:01:29;6.50;99.90
3954;DHT22;1991;48.682;9.030;2022-11-25T18:03:54;6.40;99.90
3954;DHT22;1991;48.682;9.030;2022-11-25T18:06:21;6.40;99.90
3954;DHT22;1991;48.682;9.030;2022-11-25T18:08:47;6.50;99.90
3954;DHT22;1991;48.682;9.030;2022-11-25T18:11:15;6.50;99.90
3954;DHT22;1991;48.682;9.030;2022-11-25T18:13:43;6.50;99.90
3954;DHT22;1991;48.682;9.030;2022-11-25T18:16:10;6.60;99.90
3954;DHT22;1991;48.682;9.030;2022-11-25T18:18:36;6.60;99.90
3954;DHT22;1991;48.682;9.030;2022-11-25T18:21:02;6.60;99.90
3954;DHT22;1991;48.682;9.030;2022-11-25T18:23:28;6.60;99.90
3954;DHT22;1991;48.682;9.030;2022-11-25T18:25:55;6.60;99.90
3954;DHT22;1991;48.682;9.030;2022-11-25T18:28:24;6.60;99.90
3954;DHT22;1991;48.682;9.030;2022-11-25T18:30:50;6.60;99.90
3954;DHT22;1991;48.682;9.030;2022-11-25T18:33:17;6.60;99.90
3954;DHT22;1991;48.682;9.030;2022-11-25T18:35:44;6.60;99.90
3954;DHT22;1991;48.682;9.030;2022-11-25T18:38:10;6.60;99.90
3954;DHT22;1991;48.682;9.030;2022-11-25T18:40:39;6.60;99.90
3954;DHT22;1991;48.682;9.030;2022-11-25T18:43:10;6.60;99.90
3954;DHT22;1991;48.682;9.030;2022-11-25T18:45:38;6.60;99.90
3954;DHT22;1991;48.682;9.030;2022-11-25T18:48:19;6.60;99.90
3954;DHT22;1991;48.682;9.030;2022-11-25T18:50:46;6.60;99.90
3954;DHT22;1991;48.682;9.030;2022-11-25T18:53:19;6.60;99.90